createdAt,value
2018-09-03T00:01:30.454Z,25.29
2018-09-03T00:03:58.156Z,25.16
2018-09-03T00:06:25.827Z,25.17
2018-09-03T00:08:53.482Z,25.15
2018-09-03T00:11:21.175Z,25.13
2018-09-03T00:13:48.836Z,25.15
2018-09-03T00:16:16.518Z,25.08
2018-09-03T00:18:44.220Z,25.01
2018-09-03T00:21:11.893Z,25.01
2018-09-03T00:23:39.590Z,25.00
2018-09-03T00:26:07.293Z,24.92
2018-09-03T00:28:34.975Z,24.81
2018-09-03T00:31:08.150Z,24.84
2018-09-03T00:33:41.305Z,24.81
2018-09-03T00:36:14.428Z,24.75
2018-09-03T00:38:47.598Z,24.62
2018-09-03T00:41:20.779Z,24.51
2018-09-03T00:43:53.955Z,24.50
2018-09-03T00:46:27.170Z,24.51
2018-09-03T00:48:54.826Z,24.54
2018-09-03T00:51:22.543Z,24.48
2018-09-03T00:53:50.242Z,24.38
2018-09-03T00:56:17.942Z,24.30
2018-09-03T00:58:45.611Z,24.19
2018-09-03T01:01:13.294Z,24.16
2018-09-03T01:03:40.952Z,23.91
2018-09-03T01:06:08.627Z,23.71
2018-09-03T01:08:36.324Z,23.58
2018-09-03T01:11:04.027Z,23.62
2018-09-03T01:13:31.698Z,23.63
2018-09-03T01:15:59.385Z,23.72
2018-09-03T01:18:27.074Z,23.64
2018-09-03T01:20:54.746Z,23.61
2018-09-03T01:23:22.467Z,23.55
2018-09-03T01:25:50.159Z,23.61
2018-09-03T01:28:17.855Z,23.63
2018-09-03T01:30:45.528Z,23.62
2018-09-03T01:33:13.189Z,23.57
2018-09-03T01:35:40.832Z,23.63
2018-09-03T01:38:08.593Z,23.58
2018-09-03T01:40:36.242Z,23.64
2018-09-03T01:43:03.949Z,23.64
2018-09-03T01:45:31.642Z,23.62
2018-09-03T01:47:59.287Z,23.68
2018-09-03T01:50:26.945Z,23.75
2018-09-03T01:52:54.629Z,23.83
2018-09-03T01:55:22.298Z,23.86
2018-09-03T01:57:50.007Z,23.84
2018-09-03T02:00:17.722Z,23.81
2018-09-03T02:02:45.388Z,23.75
2018-09-03T02:05:13.051Z,23.65
2018-09-03T02:07:40.756Z,23.68
2018-09-03T02:10:08.427Z,23.65
2018-09-03T02:12:36.075Z,23.63
2018-09-03T02:15:03.827Z,23.45
2018-09-03T02:17:31.590Z,23.45
2018-09-03T02:19:59.250Z,23.44
2018-09-03T02:22:26.962Z,23.50
2018-09-03T02:24:54.655Z,23.51
2018-09-03T02:27:22.355Z,23.45
2018-09-03T02:29:50.063Z,23.34
2018-09-03T02:32:17.747Z,23.30
2018-09-03T02:34:45.414Z,23.18
2018-09-03T02:37:13.131Z,23.12
2018-09-03T02:39:40.821Z,23.14
2018-09-03T02:42:08.569Z,23.09
2018-09-03T02:44:36.317Z,23.04
2018-09-03T02:47:05.130Z,23.00
2018-09-03T02:49:32.801Z,23.00
2018-09-03T02:52:00.532Z,22.94
2018-09-03T02:54:28.221Z,22.93
2018-09-03T02:56:55.979Z,22.99
2018-09-03T02:59:23.672Z,23.03
2018-09-03T03:01:51.352Z,23.00
2018-09-03T03:04:19.037Z,23.06
2018-09-03T03:06:46.767Z,23.08
2018-09-03T03:09:14.426Z,23.07
2018-09-03T03:11:42.157Z,23.13
2018-09-03T03:14:09.899Z,22.96
2018-09-03T03:16:37.579Z,23.07
2018-09-03T03:19:05.395Z,23.14
2018-09-03T03:21:33.189Z,23.15
2018-09-03T03:24:00.907Z,23.18
2018-09-03T03:26:28.590Z,23.22
2018-09-03T03:28:56.307Z,23.26
2018-09-03T03:31:23.999Z,23.27
2018-09-03T03:33:51.826Z,23.29
2018-09-03T03:36:19.530Z,23.32
2018-09-03T03:38:47.250Z,23.31
2018-09-03T03:41:14.930Z,23.29
2018-09-03T03:43:42.639Z,23.33
2018-09-03T03:46:10.296Z,23.32
2018-09-03T03:48:37.988Z,23.31
2018-09-03T03:51:05.734Z,23.24
2018-09-03T03:53:33.417Z,23.22
2018-09-03T03:56:01.089Z,23.16
2018-09-03T03:58:28.806Z,23.23
2018-09-03T04:00:56.465Z,23.36
2018-09-03T04:03:24.133Z,23.48
2018-09-03T04:05:51.840Z,23.57
2018-09-03T04:08:19.514Z,23.67
2018-09-03T04:10:47.173Z,24.11
2018-09-03T04:13:14.860Z,24.15
2018-09-03T04:15:42.539Z,24.24
2018-09-03T04:18:10.203Z,24.29
2018-09-03T04:20:37.882Z,24.80
2018-09-03T04:23:05.832Z,25.52
2018-09-03T04:25:33.501Z,26.20
2018-09-03T04:28:01.302Z,25.58
2018-09-03T04:30:29.055Z,25.41
2018-09-03T04:32:56.734Z,25.93
2018-09-03T04:35:24.482Z,26.38
2018-09-03T04:37:52.369Z,26.84
2018-09-03T04:40:20.109Z,27.82
2018-09-03T04:42:47.803Z,28.63
2018-09-03T04:45:15.501Z,29.37
2018-09-03T04:47:43.166Z,29.49
2018-09-03T04:50:10.850Z,30.16
2018-09-03T04:52:38.549Z,30.20
2018-09-03T04:55:06.346Z,30.55
2018-09-03T04:57:34.028Z,30.49
2018-09-03T05:00:01.696Z,30.99
2018-09-03T05:02:29.358Z,31.20
2018-09-03T05:04:57.047Z,31.62
2018-09-03T05:07:24.732Z,31.06
2018-09-03T05:09:53.114Z,30.26
2018-09-03T05:12:20.834Z,30.28
2018-09-03T05:14:48.612Z,29.91
2018-09-03T05:17:16.288Z,30.92
2018-09-03T05:19:44.011Z,30.69
2018-09-03T05:22:11.672Z,30.40
2018-09-03T05:24:39.458Z,30.87
2018-09-03T05:27:07.198Z,31.02
2018-09-03T05:29:34.976Z,31.69
2018-09-03T05:32:02.711Z,32.17
2018-09-03T05:34:30.405Z,32.68
2018-09-03T05:36:58.055Z,32.87
2018-09-03T05:39:25.720Z,32.68
2018-09-03T05:41:53.462Z,32.66
2018-09-03T05:44:21.122Z,33.75
2018-09-03T05:46:48.798Z,34.30
2018-09-03T05:49:16.502Z,34.30
2018-09-03T05:51:44.179Z,33.31
2018-09-03T05:54:11.850Z,34.12
2018-09-03T05:56:39.717Z,33.85
2018-09-03T05:59:07.509Z,34.02
2018-09-03T06:01:35.209Z,32.66
2018-09-03T06:04:03.295Z,31.38
2018-09-03T06:06:31.001Z,31.18
2018-09-03T06:08:58.648Z,30.40
2018-09-03T06:11:26.406Z,30.52
2018-09-03T06:13:54.062Z,30.30
2018-09-03T06:16:22.502Z,30.16
2018-09-03T06:18:50.308Z,29.66
2018-09-03T06:21:17.995Z,30.28
2018-09-03T06:23:45.671Z,31.16
2018-09-03T06:26:13.381Z,31.41
2018-09-03T06:28:41.063Z,31.58
2018-09-03T06:31:08.753Z,32.32
2018-09-03T06:33:36.471Z,32.77
2018-09-03T06:36:04.154Z,32.67
2018-09-03T06:38:31.845Z,31.98
2018-09-03T06:40:59.567Z,31.69
2018-09-03T06:43:27.243Z,32.58
2018-09-03T06:45:54.957Z,32.49
2018-09-03T06:48:22.655Z,31.94
2018-09-03T06:50:50.329Z,32.15
2018-09-03T06:53:18.233Z,32.25
2018-09-03T06:55:46.023Z,32.22
2018-09-03T06:58:13.686Z,32.14
2018-09-03T07:00:41.331Z,32.78
2018-09-03T07:03:09.059Z,33.36
2018-09-03T07:05:36.727Z,33.36
2018-09-03T07:08:04.465Z,32.90
2018-09-03T07:10:32.187Z,32.76
2018-09-03T07:13:04.341Z,32.27
2018-09-03T07:15:32.116Z,32.20
2018-09-03T07:18:00.047Z,31.81
2018-09-03T07:20:27.718Z,32.12
2018-09-03T07:22:55.557Z,32.52
2018-09-03T07:25:23.234Z,33.50
2018-09-03T07:27:50.907Z,33.00
2018-09-03T07:30:18.613Z,32.49
2018-09-03T07:32:46.286Z,32.55
2018-09-03T07:35:13.998Z,31.94
2018-09-03T07:37:41.680Z,31.85
2018-09-03T07:40:09.366Z,32.26
2018-09-03T07:42:37.064Z,32.48
2018-09-03T07:45:05.163Z,32.76
2018-09-03T07:47:32.893Z,33.40
2018-09-03T07:50:00.575Z,33.73
2018-09-03T07:52:28.391Z,33.58
2018-09-03T07:54:56.075Z,33.98
2018-09-03T07:57:23.995Z,33.98
2018-09-03T07:59:51.728Z,33.64
2018-09-03T08:02:19.437Z,32.85
2018-09-03T08:04:47.130Z,33.57
2018-09-03T08:07:14.882Z,33.68
2018-09-03T08:09:42.695Z,33.48
2018-09-03T08:12:10.392Z,33.98
2018-09-03T08:14:38.076Z,34.88
2018-09-03T08:17:05.869Z,33.38
2018-09-03T08:19:33.581Z,34.03
2018-09-03T08:22:01.875Z,35.26
2018-09-03T08:24:29.584Z,35.05
2018-09-03T08:26:57.350Z,34.58
2018-09-03T08:29:25.086Z,34.74
2018-09-03T08:31:52.899Z,34.73
2018-09-03T08:34:20.637Z,34.74
2018-09-03T08:36:48.356Z,34.29
2018-09-03T08:39:16.035Z,34.48
2018-09-03T08:41:43.738Z,35.04
2018-09-03T08:44:11.491Z,34.96
2018-09-03T08:46:39.196Z,34.32
2018-09-03T08:49:06.970Z,34.79
2018-09-03T08:51:34.678Z,34.83
2018-09-03T08:54:02.437Z,35.65
2018-09-03T08:56:30.209Z,36.26
2018-09-03T08:58:57.985Z,36.13
2018-09-03T09:01:25.692Z,36.27
2018-09-03T09:03:53.475Z,36.26
2018-09-03T09:06:21.201Z,35.27
2018-09-03T09:08:48.908Z,35.68
2018-09-03T09:11:16.613Z,34.99
2018-09-03T09:13:44.366Z,35.65
2018-09-03T09:16:12.094Z,36.20
2018-09-03T09:18:39.868Z,36.64
2018-09-03T09:21:07.738Z,35.70
2018-09-03T09:23:35.461Z,34.90
2018-09-03T09:26:03.194Z,34.30
2018-09-03T09:28:30.971Z,34.09
2018-09-03T09:30:58.729Z,34.29
2018-09-03T09:33:26.473Z,34.67
2018-09-03T09:35:54.267Z,35.11
2018-09-03T09:38:22.073Z,35.08
2018-09-03T09:40:49.761Z,34.77
2018-09-03T09:43:17.589Z,34.51
2018-09-03T09:45:45.341Z,34.10
2018-09-03T09:48:13.146Z,33.90
2018-09-03T09:50:41.174Z,34.14
2018-09-03T09:53:08.903Z,34.32
2018-09-03T09:55:36.545Z,34.42
2018-09-03T09:58:04.325Z,35.03
2018-09-03T10:00:37.671Z,34.27
2018-09-03T10:03:05.606Z,33.97
2018-09-03T10:05:33.341Z,35.17
2018-09-03T10:08:01.041Z,36.15
2018-09-03T10:10:29.216Z,36.71
2018-09-03T10:12:57.026Z,37.21
2018-09-03T10:15:24.755Z,35.60
2018-09-03T10:17:52.517Z,36.43
2018-09-03T10:20:20.257Z,37.19
2018-09-03T10:22:48.059Z,36.59
2018-09-03T10:25:15.785Z,36.08
2018-09-03T10:27:43.485Z,36.07
2018-09-03T10:30:11.189Z,36.20
2018-09-03T10:32:39.064Z,36.08
2018-09-03T10:35:06.897Z,36.66
2018-09-03T10:37:34.692Z,36.29
2018-09-03T10:40:02.444Z,36.53
2018-09-03T10:42:30.229Z,37.30
2018-09-03T10:44:57.950Z,36.36
2018-09-03T10:47:25.690Z,35.26
2018-09-03T10:49:53.393Z,36.61
2018-09-03T10:52:21.085Z,36.25
2018-09-03T10:54:48.808Z,35.72
2018-09-03T10:57:16.514Z,34.79
2018-09-03T10:59:44.225Z,35.31
2018-09-03T11:02:11.984Z,34.94
2018-09-03T11:04:39.713Z,35.22
2018-09-03T11:07:07.890Z,35.46
2018-09-03T11:09:35.963Z,36.68
2018-09-03T11:12:04.919Z,37.09
2018-09-03T11:14:32.719Z,37.48
2018-09-03T11:17:00.442Z,38.82
2018-09-03T11:19:30.352Z,39.55
2018-09-03T11:21:58.060Z,38.22
2018-09-03T11:24:26.132Z,37.00
2018-09-03T11:26:53.876Z,36.98
2018-09-03T11:29:21.562Z,37.26
2018-09-03T11:31:49.310Z,38.04
2018-09-03T11:34:17.085Z,37.92
2018-09-03T11:36:44.815Z,37.35
2018-09-03T11:39:12.706Z,37.49
2018-09-03T11:41:41.142Z,38.36
2018-09-03T11:44:08.881Z,37.75
2018-09-03T11:46:36.920Z,37.04
2018-09-03T11:49:04.969Z,37.31
2018-09-03T11:51:32.679Z,36.80
2018-09-03T11:54:00.464Z,37.13
2018-09-03T11:56:28.207Z,37.07
2018-09-03T11:58:56.794Z,36.62
2018-09-03T12:01:24.569Z,36.92
2018-09-03T12:03:52.727Z,37.50
2018-09-03T12:06:20.415Z,37.53
2018-09-03T12:08:48.160Z,37.67
2018-09-03T12:11:15.928Z,37.09
2018-09-03T12:13:43.619Z,38.06
2018-09-03T12:16:13.256Z,37.94
2018-09-03T12:18:42.177Z,37.80
2018-09-03T12:21:10.536Z,38.75
2018-09-03T12:23:38.622Z,38.09
2018-09-03T12:26:06.938Z,38.28
2018-09-03T12:28:34.765Z,37.79
2018-09-03T12:31:02.557Z,37.21
2018-09-03T12:33:30.302Z,37.50
2018-09-03T12:35:57.973Z,36.92
2018-09-03T12:38:25.753Z,37.29
2018-09-03T12:40:53.494Z,37.82
2018-09-03T12:43:21.241Z,37.88
2018-09-03T12:45:54.395Z,37.62
2018-09-03T12:48:22.345Z,37.73
2018-09-03T12:50:50.178Z,37.59
2018-09-03T12:53:17.920Z,37.25
2018-09-03T12:55:45.601Z,37.67
2018-09-03T12:58:13.300Z,37.96
2018-09-03T13:00:41.084Z,38.45
2018-09-03T13:03:08.995Z,38.25
2018-09-03T13:05:36.712Z,37.75
2018-09-03T13:08:04.507Z,36.95
2018-09-03T13:10:32.250Z,36.46
2018-09-03T13:12:59.949Z,36.23
2018-09-03T13:15:27.721Z,36.72
2018-09-03T13:17:55.414Z,36.60
2018-09-03T13:20:23.136Z,36.27
2018-09-03T13:22:50.902Z,36.96
2018-09-03T13:25:18.635Z,37.31
2018-09-03T13:27:46.574Z,37.60
2018-09-03T13:30:14.324Z,38.20
2018-09-03T13:32:42.038Z,38.19
2018-09-03T13:35:09.742Z,37.39
2018-09-03T13:37:37.502Z,37.39
2018-09-03T13:40:05.618Z,37.86
2018-09-03T13:42:33.377Z,38.66
2018-09-03T13:45:01.206Z,38.48
2018-09-03T13:47:28.929Z,37.82
2018-09-03T13:49:56.657Z,37.88
2018-09-03T13:52:24.399Z,36.28
2018-09-03T13:54:52.160Z,35.50
2018-09-03T13:57:19.889Z,35.22
2018-09-03T13:59:47.639Z,34.67
2018-09-03T14:02:15.397Z,35.32
2018-09-03T14:04:43.189Z,35.26
2018-09-03T14:07:10.917Z,35.40
2018-09-03T14:09:38.766Z,35.19
2018-09-03T14:12:07.208Z,34.37
2018-09-03T14:14:35.005Z,33.98
2018-09-03T14:17:02.813Z,33.85
2018-09-03T14:19:30.564Z,34.16
2018-09-03T14:21:58.363Z,33.97
2018-09-03T14:24:26.113Z,34.45
2018-09-03T14:26:54.160Z,35.07
2018-09-03T14:29:21.888Z,34.71
2018-09-03T14:31:49.634Z,34.92
2018-09-03T14:34:17.377Z,35.69
2018-09-03T14:36:45.148Z,35.81
2018-09-03T14:39:12.894Z,34.75
2018-09-03T14:41:40.596Z,34.60
2018-09-03T14:44:08.908Z,34.93
2018-09-03T14:46:36.594Z,35.68
2018-09-03T14:49:05.062Z,35.49
2018-09-03T14:51:32.793Z,35.53
2018-09-03T14:54:00.485Z,35.91
2018-09-03T14:56:28.174Z,35.98
2018-09-03T14:58:55.948Z,36.02
2018-09-03T15:01:23.973Z,35.51
2018-09-03T15:03:51.677Z,35.28
2018-09-03T15:06:19.419Z,35.78
2018-09-03T15:08:47.174Z,36.30
2018-09-03T15:11:14.926Z,35.92
2018-09-03T15:13:42.765Z,35.95
2018-09-03T15:16:10.481Z,35.81
2018-09-03T15:18:38.221Z,35.78
2018-09-03T15:21:05.976Z,35.62
2018-09-03T15:23:33.808Z,35.42
2018-09-03T15:26:01.627Z,35.40
2018-09-03T15:28:29.341Z,35.36
2018-09-03T15:30:57.043Z,35.23
2018-09-03T15:33:24.773Z,34.94
2018-09-03T15:35:52.540Z,34.73
2018-09-03T15:38:20.285Z,34.84
2018-09-03T15:40:47.974Z,34.71
2018-09-03T15:43:15.793Z,34.92
2018-09-03T15:45:43.522Z,35.27
2018-09-03T15:48:11.261Z,35.27
2018-09-03T15:50:38.989Z,35.40
2018-09-03T15:53:06.761Z,35.39
2018-09-03T15:55:34.520Z,34.87
2018-09-03T15:58:02.298Z,34.29
2018-09-03T16:00:29.991Z,33.98
2018-09-03T16:02:57.756Z,33.69
2018-09-03T16:05:25.520Z,33.72
2018-09-03T16:07:53.234Z,33.66
2018-09-03T16:10:20.938Z,33.41
2018-09-03T16:12:48.649Z,32.80
2018-09-03T16:15:16.376Z,32.71
2018-09-03T16:17:44.114Z,32.82
2018-09-03T16:20:11.898Z,32.82
2018-09-03T16:22:39.659Z,32.44
2018-09-03T16:25:07.505Z,32.12
2018-09-03T16:27:35.264Z,31.64
2018-09-03T16:30:03.056Z,31.18
2018-09-03T16:32:30.725Z,31.07
2018-09-03T16:34:58.524Z,31.01
2018-09-03T16:37:26.197Z,31.06
2018-09-03T16:39:53.940Z,31.24
2018-09-03T16:42:21.744Z,31.28
2018-09-03T16:44:49.489Z,31.14
2018-09-03T16:47:17.161Z,30.94
2018-09-03T16:49:44.948Z,31.09
2018-09-03T16:52:12.662Z,30.95
2018-09-03T16:54:40.329Z,30.80
2018-09-03T16:57:08.149Z,30.59
2018-09-03T16:59:35.876Z,30.42
2018-09-03T17:02:03.614Z,30.12
2018-09-03T17:04:31.453Z,29.68
2018-09-03T17:06:59.225Z,29.69
2018-09-03T17:09:27.049Z,29.79
2018-09-03T17:11:54.833Z,30.00
2018-09-03T17:14:22.744Z,30.01
2018-09-03T17:16:50.426Z,29.98
2018-09-03T17:19:18.197Z,30.07
2018-09-03T17:21:45.888Z,30.18
2018-09-03T17:24:13.603Z,30.24
2018-09-03T17:26:41.402Z,30.21
2018-09-03T17:29:09.141Z,30.01
2018-09-03T17:31:36.825Z,29.94
2018-09-03T17:34:04.550Z,29.86
2018-09-03T17:36:32.273Z,29.82
2018-09-03T17:39:00.054Z,29.83
2018-09-03T17:41:27.791Z,29.73
2018-09-03T17:43:55.468Z,29.78
2018-09-03T17:46:23.205Z,29.82
2018-09-03T17:48:51.245Z,29.87
2018-09-03T17:51:18.965Z,29.86
2018-09-03T17:53:46.701Z,29.76
2018-09-03T17:56:14.494Z,29.39
2018-09-03T17:58:42.322Z,29.45
2018-09-03T18:01:10.072Z,29.28
2018-09-03T18:03:37.957Z,29.27
2018-09-03T18:06:05.915Z,29.30
2018-09-03T18:08:33.769Z,29.12
2018-09-03T18:11:01.537Z,28.59
2018-09-03T18:13:29.296Z,28.38
2018-09-03T18:15:56.998Z,28.28
2018-09-03T18:18:24.785Z,28.31
2018-09-03T18:20:52.478Z,28.31
2018-09-03T18:23:20.166Z,28.22
2018-09-03T18:25:47.917Z,28.53
2018-09-03T18:28:15.632Z,28.66
2018-09-03T18:30:43.457Z,28.72
2018-09-03T18:33:11.313Z,28.47
2018-09-03T18:35:39.018Z,28.36
2018-09-03T18:38:06.729Z,28.41
2018-09-03T18:40:34.504Z,28.19
2018-09-03T18:43:02.337Z,28.12
2018-09-03T18:45:30.057Z,28.02
2018-09-03T18:47:57.818Z,27.99
2018-09-03T18:50:25.533Z,28.07
2018-09-03T18:52:53.338Z,27.85
2018-09-03T18:55:21.061Z,27.72
2018-09-03T18:57:48.821Z,27.81
2018-09-03T19:00:16.565Z,28.02
2018-09-03T19:02:44.283Z,28.12
2018-09-03T19:05:12.050Z,27.94
2018-09-03T19:07:39.765Z,28.23
2018-09-03T19:10:07.568Z,28.19
2018-09-03T19:12:35.274Z,28.22
2018-09-03T19:15:03.025Z,28.16
2018-09-03T19:17:30.765Z,28.11
2018-09-03T19:19:58.497Z,28.20
2018-09-03T19:22:26.226Z,28.33
2018-09-03T19:24:54.025Z,28.22
2018-09-03T19:27:21.852Z,28.52
2018-09-03T19:29:49.548Z,28.63
2018-09-03T19:32:17.312Z,28.53
2018-09-03T19:34:45.045Z,28.38
2018-09-03T19:37:12.768Z,28.31
2018-09-03T19:39:40.544Z,28.47
2018-09-03T19:42:08.433Z,28.49
2018-09-03T19:44:36.135Z,28.31
2018-09-03T19:47:03.858Z,28.28
2018-09-03T19:49:31.593Z,28.06
2018-09-03T19:51:59.363Z,28.25
2018-09-03T19:54:27.149Z,28.18
2018-09-03T19:56:54.848Z,28.17
2018-09-03T19:59:22.554Z,28.29
2018-09-03T20:01:50.284Z,28.41
2018-09-03T20:04:17.988Z,28.54
2018-09-03T20:06:45.657Z,28.41
2018-09-03T20:09:13.408Z,28.33
2018-09-03T20:11:41.154Z,28.47
2018-09-03T20:14:08.836Z,28.50
2018-09-03T20:16:36.637Z,28.34
2018-09-03T20:19:04.397Z,28.33
2018-09-03T20:21:32.080Z,28.36
2018-09-03T20:23:59.935Z,28.20
2018-09-03T20:26:27.620Z,28.28
2018-09-03T20:28:55.337Z,28.18
2018-09-03T20:31:23.102Z,28.13
2018-09-03T20:33:50.826Z,28.10
2018-09-03T20:36:18.561Z,28.04
2018-09-03T20:38:46.325Z,28.03
2018-09-03T20:41:14.351Z,28.05
2018-09-03T20:43:42.088Z,27.96
2018-09-03T20:46:09.813Z,27.96
2018-09-03T20:48:37.657Z,27.92
2018-09-03T20:51:06.219Z,27.85
2018-09-03T20:53:33.983Z,27.84
2018-09-03T20:56:01.938Z,27.91
2018-09-03T20:58:29.785Z,27.92
2018-09-03T21:00:57.527Z,27.93
2018-09-03T21:03:25.232Z,27.60
2018-09-03T21:05:52.960Z,27.41
2018-09-03T21:08:20.834Z,27.39
2018-09-03T21:10:48.472Z,27.30
2018-09-03T21:13:16.205Z,27.29
2018-09-03T21:15:43.953Z,27.30
2018-09-03T21:18:11.629Z,27.08
2018-09-03T21:20:39.313Z,26.57
2018-09-03T21:23:07.118Z,26.40
2018-09-03T21:25:34.881Z,26.34
2018-09-03T21:28:03.470Z,26.22
2018-09-03T21:30:31.205Z,26.15
2018-09-03T21:32:58.904Z,26.20
2018-09-03T21:35:26.631Z,26.03
2018-09-03T21:37:54.819Z,25.88
2018-09-03T21:40:22.546Z,25.92
2018-09-03T21:42:50.195Z,25.99
2018-09-03T21:45:17.936Z,25.80
2018-09-03T21:47:45.676Z,25.94
2018-09-03T21:50:13.354Z,25.99
2018-09-03T21:52:41.066Z,26.12
2018-09-03T21:55:08.764Z,26.19
2018-09-03T21:57:36.451Z,26.07
2018-09-03T22:00:04.598Z,25.83
2018-09-03T22:02:32.287Z,25.76
2018-09-03T22:04:59.975Z,25.68
2018-09-03T22:07:27.719Z,25.37
2018-09-03T22:09:55.414Z,25.60
2018-09-03T22:12:23.085Z,25.77
2018-09-03T22:14:50.773Z,25.82
2018-09-03T22:17:18.463Z,25.74
2018-09-03T22:19:46.147Z,25.51
2018-09-03T22:22:13.854Z,25.55
2018-09-03T22:24:41.657Z,25.44
2018-09-03T22:27:09.339Z,25.72
2018-09-03T22:29:37.046Z,25.71
2018-09-03T22:32:04.831Z,25.31
2018-09-03T22:34:32.523Z,25.54
2018-09-03T22:37:00.217Z,25.50
2018-09-03T22:39:27.885Z,25.77
2018-09-03T22:41:55.543Z,25.53
2018-09-03T22:44:23.255Z,25.51
2018-09-03T22:46:50.937Z,25.28
2018-09-03T22:49:18.628Z,25.12
2018-09-03T22:51:46.356Z,25.24
2018-09-03T22:54:14.019Z,24.83
2018-09-03T22:56:41.718Z,25.23
2018-09-03T22:59:09.434Z,25.20
2018-09-03T23:01:37.101Z,25.26
2018-09-03T23:04:04.889Z,25.42
2018-09-03T23:06:32.563Z,25.15
2018-09-03T23:09:00.246Z,25.36
2018-09-03T23:11:27.980Z,25.48
2018-09-03T23:13:55.702Z,25.24
2018-09-03T23:16:23.423Z,25.01
2018-09-03T23:18:51.186Z,25.09
2018-09-03T23:21:19.040Z,25.23
2018-09-03T23:23:46.811Z,25.06
2018-09-03T23:26:14.501Z,24.80
2018-09-03T23:28:42.255Z,24.71
2018-09-03T23:31:09.970Z,24.56
2018-09-03T23:33:37.707Z,24.32
2018-09-03T23:36:05.449Z,24.30
2018-09-03T23:38:33.228Z,24.22
2018-09-03T23:41:00.929Z,24.47
2018-09-03T23:43:28.765Z,24.29
2018-09-03T23:45:56.553Z,23.99
2018-09-03T23:48:24.299Z,23.94
2018-09-03T23:50:52.197Z,24.24
2018-09-03T23:53:19.933Z,24.07
2018-09-03T23:55:47.838Z,24.17
2018-09-03T23:58:15.538Z,24.07
